Time,TemperatureF,DewpointF,PressureIn,WindDirection,WindDirectionDegrees,WindSpeedMPH,WindSpeedGustMPH,Humidity,HourlyPrecipIn,Conditions,Clouds,dailyrainin,SolarRadiationWatts/m^2,SoftwareType,DateUTC
2013-07-22 00:01:00,60.6,45.3,29.70,SW,233,1.0,1.0,57,0.00,,,0.00,0,Wunderground v.1.15,2013-07-22 06:01:00,
2013-07-22 00:07:00,60.3,44.5,29.70,SW,233,1.0,2.0,56,0.00,,,0.00,0,Wunderground v.1.15,2013-07-22 06:07:00,
2013-07-22 00:13:00,60.0,45.6,29.70,SW,233,1.0,2.0,59,0.00,,,0.00,0,Wunderground v.1.15,2013-07-22 06:13:00,
2013-07-22 00:19:00,59.9,45.1,29.70,SW,233,0.0,2.0,58,0.00,,,0.00,0,Wunderground v.1.15,2013-07-22 06:19:00,
2013-07-22 00:25:00,59.8,45.0,29.70,SW,233,0.0,0.0,58,0.00,,,0.00,0,Wunderground v.1.15,2013-07-22 06:25:00,
2013-07-22 00:31:00,59.6,44.3,29.70,SW,233,0.0,0.0,57,0.00,,,0.00,0,Wunderground v.1.15,2013-07-22 06:31:00,
2013-07-22 00:37:00,59.4,44.6,29.70,SW,233,0.0,0.0,58,0.00,,,0.00,0,Wunderground v.1.15,2013-07-22 06:37:00,
2013-07-22 00:43:00,59.0,45.1,29.70,SW,233,0.0,1.0,60,0.00,,,0.00,0,Wunderground v.1.15,2013-07-22 06:43:00,
2013-07-22 00:48:00,59.0,45.6,29.70,SW,233,0.0,1.0,61,0.00,,,0.00,0,Wunderground v.1.15,2013-07-22 06:48:00,
2013-07-22 00:54:00,58.4,45.8,29.70,SW,233,0.0,1.0,63,0.00,,,0.00,0,Wunderground v.1.15,2013-07-22 06:54:00,
2013-07-22 01:00:00,58.0,45.0,29.71,SW,233,0.0,0.0,62,0.00,,,0.00,0,Wunderground v.1.15,2013-07-22 07:00:00,
2013-07-22 01:06:00,57.8,44.9,29.71,SW,233,0.0,0.0,62,0.00,,,0.00,0,Wunderground v.1.15,2013-07-22 07:06:00,
2013-07-22 01:12:00,57.6,45.5,29.71,SW,233,0.0,2.0,64,0.00,,,0.00,0,Wunderground v.1.15,2013-07-22 07:12:00,
2013-07-22 01:18:00,57.5,45.4,29.71,SW,233,0.0,2.0,64,0.00,,,0.00,0,Wunderground v.1.15,2013-07-22 07:18:00,
2013-07-22 01:24:00,57.2,45.5,29.71,SW,233,0.0,1.0,65,0.00,,,0.00,0,Wunderground v.1.15,2013-07-22 07:24:00,
2013-07-22 01:30:00,57.0,44.5,29.71,SW,233,0.0,0.0,63,0.00,,,0.00,0,Wunderground v.1.15,2013-07-22 07:30:00,
2013-07-22 01:36:00,56.9,44.8,29.70,SW,233,0.0,0.0,64,0.00,,,0.00,0,Wunderground v.1.15,2013-07-22 07:36:00,
2013-07-22 01:42:00,56.9,44.8,29.70,SW,233,0.0,0.0,64,0.00,,,0.00,0,Wunderground v.1.15,2013-07-22 07:42:00,
2013-07-22 01:48:00,56.8,44.3,29.70,SW,233,0.0,0.0,63,0.00,,,0.00,0,Wunderground v.1.15,2013-07-22 07:48:00,
2013-07-22 01:54:00,56.8,45.6,29.71,SW,233,0.0,0.0,66,0.00,,,0.00,0,Wunderground v.1.15,2013-07-22 07:54:00,
2013-07-22 02:00:00,56.7,44.7,29.71,SW,233,1.0,1.0,64,0.00,,,0.00,0,Wunderground v.1.15,2013-07-22 08:00:00,
2013-07-22 02:06:00,56.4,44.0,29.70,SW,233,1.0,1.0,63,0.00,,,0.00,0,Wunderground v.1.15,2013-07-22 08:06:00,
2013-07-22 02:11:00,56.3,43.4,29.71,SW,233,0.0,0.0,62,0.00,,,0.00,0,Wunderground v.1.15,2013-07-22 08:11:00,
2013-07-22 02:17:00,56.2,43.3,29.71,SW,233,0.0,1.0,62,0.00,,,0.00,0,Wunderground v.1.15,2013-07-22 08:17:00,
2013-07-22 02:23:00,56.1,43.7,29.70,SW,233,0.0,0.0,63,0.00,,,0.00,0,Wunderground v.1.15,2013-07-22 08:23:00,
2013-07-22 02:29:00,56.0,44.0,29.71,SW,233,0.0,1.0,64,0.00,,,0.00,0,Wunderground v.1.15,2013-07-22 08:29:00,
2013-07-22 02:35:00,55.8,43.4,29.71,SW,233,0.0,1.0,63,0.00,,,0.00,0,Wunderground v.1.15,2013-07-22 08:35:00,
2013-07-22 02:41:00,55.6,43.6,29.70,SW,233,0.0,1.0,64,0.00,,,0.00,0,Wunderground v.1.15,2013-07-22 08:41:00,
2013-07-22 02:47:00,55.4,45.0,29.71,SW,233,0.0,1.0,68,0.00,,,0.00,0,Wunderground v.1.15,2013-07-22 08:47:00,
2013-07-22 02:53:00,55.1,42.7,29.71,SW,233,0.0,2.0,63,0.00,,,0.00,0,Wunderground v.1.15,2013-07-22 08:53:00,
2013-07-22 02:59:00,55.0,43.0,29.71,SW,233,0.0,2.0,64,0.00,,,0.00,0,Wunderground v.1.15,2013-07-22 08:59:00,
2013-07-22 03:05:00,54.9,42.9,29.71,SW,233,0.0,1.0,64,0.00,,,0.00,0,Wunderground v.1.15,2013-07-22 09:05:00,
2013-07-22 03:11:00,54.9,43.7,29.71,SW,233,0.0,1.0,66,0.00,,,0.00,0,Wunderground v.1.15,2013-07-22 09:11:00,
2013-07-22 03:17:00,54.8,43.3,29.71,SW,233,0.0,1.0,65,0.00,,,0.00,0,Wunderground v.1.15,2013-07-22 09:17:00,
2013-07-22 03:23:00,54.7,43.6,29.71,SW,233,0.0,0.0,66,0.00,,,0.00,0,Wunderground v.1.15,2013-07-22 09:23:00,
2013-07-22 03:28:00,54.6,43.1,29.71,SW,233,0.0,0.0,65,0.00,,,0.00,0,Wunderground v.1.15,2013-07-22 09:28:00,
2013-07-22 03:34:00,54.5,42.6,29.71,SW,233,0.0,0.0,64,0.00,,,0.00,0,Wunderground v.1.15,2013-07-22 09:34:00,
2013-07-22 03:40:00,54.3,43.2,29.71,SW,233,0.0,0.0,66,0.00,,,0.00,0,Wunderground v.1.15,2013-07-22 09:40:00,
2013-07-22 03:46:00,53.9,43.2,29.72,SW,233,0.0,0.0,67,0.00,,,0.00,0,Wunderground v.1.15,2013-07-22 09:46:00,
2013-07-22 03:52:00,53.5,43.2,29.71,SW,233,0.0,0.0,68,0.00,,,0.00,0,Wunderground v.1.15,2013-07-22 09:52:00,
2013-07-22 03:58:00,53.4,43.5,29.72,SW,233,0.0,0.0,69,0.00,,,0.00,0,Wunderground v.1.15,2013-07-22 09:58:00,
2013-07-22 04:04:00,53.3,43.0,29.72,SW,233,0.0,1.0,68,0.00,,,0.00,0,Wunderground v.1.15,2013-07-22 10:04:00,
2013-07-22 04:10:00,53.2,43.3,29.72,SW,233,0.0,0.0,69,0.00,,,0.00,0,Wunderground v.1.15,2013-07-22 10:10:00,
2013-07-22 04:16:00,53.1,43.6,29.72,SW,233,0.0,2.0,70,0.00,,,0.00,0,Wunderground v.1.15,2013-07-22 10:16:00,
2013-07-22 04:22:00,53.0,43.8,29.72,SW,233,0.0,1.0,71,0.00,,,0.00,0,Wunderground v.1.15,2013-07-22 10:22:00,
2013-07-22 04:28:00,52.8,43.7,29.72,SW,233,0.0,1.0,71,0.00,,,0.00,0,Wunderground v.1.15,2013-07-22 10:28:00,
2013-07-22 04:34:00,52.5,43.7,29.72,SW,233,0.0,0.0,72,0.00,,,0.00,0,Wunderground v.1.15,2013-07-22 10:34:00,
2013-07-22 04:40:00,52.3,43.5,29.72,SW,233,0.0,0.0,72,0.00,,,0.00,0,Wunderground v.1.15,2013-07-22 10:40:00,
2013-07-22 04:46:00,52.1,43.7,29.72,SW,233,0.0,0.0,73,0.00,,,0.00,0,Wunderground v.1.15,2013-07-22 10:46:00,
2013-07-22 04:51:00,51.9,43.5,29.72,SW,233,0.0,1.0,73,0.00,,,0.00,0,Wunderground v.1.15,2013-07-22 10:51:00,
2013-07-22 04:57:00,51.8,43.4,29.72,SW,233,0.0,1.0,73,0.00,,,0.00,0,Wunderground v.1.15,2013-07-22 10:57:00,
2013-07-22 05:03:00,51.8,44.5,29.72,SW,233,0.0,0.0,76,0.00,,,0.00,0,Wunderground v.1.15,2013-07-22 11:03:00,
2013-07-22 05:09:00,51.8,44.1,29.72,SW,233,0.0,0.0,75,0.00,,,0.00,0,Wunderground v.1.15,2013-07-22 11:09:00,
2013-07-22 05:15:00,51.6,43.9,29.73,SW,233,0.0,0.0,75,0.00,,,0.00,0,Wunderground v.1.15,2013-07-22 11:15:00,
2013-07-22 05:21:00,51.5,43.8,29.73,SW,233,0.0,0.0,75,0.00,,,0.00,0,Wunderground v.1.15,2013-07-22 11:21:00,
2013-07-22 05:27:00,51.3,44.3,29.73,SW,233,0.0,0.0,77,0.00,,,0.00,0,Wunderground v.1.15,2013-07-22 11:27:00,
2013-07-22 05:33:00,51.1,44.1,29.73,SW,233,0.0,1.0,77,0.00,,,0.00,0,Wunderground v.1.15,2013-07-22 11:33:00,
2013-07-22 05:39:00,50.9,44.3,29.74,SW,233,0.0,1.0,78,0.00,,,0.00,0,Wunderground v.1.15,2013-07-22 11:39:00,
2013-07-22 05:45:00,50.8,44.2,29.74,SW,233,0.0,1.0,78,0.00,,,0.00,0,Wunderground v.1.15,2013-07-22 11:45:00,
2013-07-22 05:51:00,50.8,44.2,29.74,SW,233,0.0,0.0,78,0.00,,,0.00,0,Wunderground v.1.15,2013-07-22 11:51:00,
2013-07-22 05:57:00,50.8,44.2,29.74,SW,233,0.0,1.0,78,0.00,,,0.00,0,Wunderground v.1.15,2013-07-22 11:57:00,
2013-07-22 06:03:00,50.8,44.2,29.74,SW,233,0.0,0.0,78,0.00,,,0.00,0,Wunderground v.1.15,2013-07-22 12:03:00,
2013-07-22 06:08:00,50.7,43.8,29.74,SW,233,0.0,1.0,77,0.00,,,0.00,5,Wunderground v.1.15,2013-07-22 12:08:00,
2013-07-22 06:14:00,50.7,44.1,29.74,SW,233,0.0,0.0,78,0.00,,,0.00,7,Wunderground v.1.15,2013-07-22 12:14:00,
2013-07-22 06:20:00,50.7,44.1,29.74,SW,233,0.0,0.0,78,0.00,,,0.00,9,Wunderground v.1.15,2013-07-22 12:20:00,
2013-07-22 06:26:00,50.6,44.3,29.75,SW,229,0.0,0.0,79,0.00,,,0.00,14,Wunderground v.1.15,2013-07-22 12:26:00,
2013-07-22 06:32:00,50.5,44.6,29.74,SW,229,0.0,1.0,80,0.00,,,0.00,16,Wunderground v.1.15,2013-07-22 12:32:00,
2013-07-22 06:38:00,50.5,44.9,29.75,SW,229,0.0,1.0,81,0.00,,,0.00,23,Wunderground v.1.15,2013-07-22 12:38:00,
2013-07-22 06:44:00,50.6,45.3,29.75,SW,229,0.0,0.0,82,0.00,,,0.00,42,Wunderground v.1.15,2013-07-22 12:44:00,
2013-07-22 06:50:00,50.8,45.5,29.75,West,265,0.0,0.0,82,0.00,,,0.00,35,Wunderground v.1.15,2013-07-22 12:50:00,
2013-07-22 06:56:00,51.1,45.8,29.75,West,280,0.0,0.0,82,0.00,,,0.00,97,Wunderground v.1.15,2013-07-22 12:56:00,
2013-07-22 07:02:00,51.5,46.2,29.75,NW,314,0.0,0.0,82,0.00,,,0.00,54,Wunderground v.1.15,2013-07-22 13:02:00,
2013-07-22 07:08:00,51.9,46.6,29.75,NW,314,0.0,0.0,82,0.00,,,0.00,125,Wunderground v.1.15,2013-07-22 13:08:00,
2013-07-22 07:14:00,52.3,47.0,29.75,NNW,345,0.0,0.0,82,0.00,,,0.00,139,Wunderground v.1.15,2013-07-22 13:14:00,
2013-07-22 07:20:00,52.8,47.8,29.75,ENE,76,0.0,0.0,83,0.00,,,0.00,160,Wunderground v.1.15,2013-07-22 13:20:00,
2013-07-22 07:26:00,53.4,48.4,29.76,North,360,0.0,0.0,83,0.00,,,0.00,200,Wunderground v.1.15,2013-07-22 13:26:00,
2013-07-22 07:31:00,54.2,47.5,29.76,NE,55,0.0,0.0,78,0.00,,,0.00,183,Wunderground v.1.15,2013-07-22 13:31:00,
2013-07-22 07:37:00,55.1,47.0,29.76,NE,55,0.0,0.0,74,0.00,,,0.00,197,Wunderground v.1.15,2013-07-22 13:37:00,
2013-07-22 07:43:00,56.1,48.3,29.75,NE,55,0.0,0.0,75,0.00,,,0.00,135,Wunderground v.1.15,2013-07-22 13:43:00,
2013-07-22 07:49:00,57.0,48.8,29.75,ENE,74,0.0,0.0,74,0.00,,,0.00,232,Wunderground v.1.15,2013-07-22 13:49:00,
2013-07-22 07:55:00,58.2,48.5,29.75,East,96,0.0,0.0,70,0.00,,,0.00,250,Wunderground v.1.15,2013-07-22 13:55:00,
2013-07-22 08:01:00,59.2,49.8,29.75,East,86,0.0,0.0,71,0.00,,,0.00,265,Wunderground v.1.15,2013-07-22 14:01:00,
2013-07-22 08:07:00,60.2,48.8,29.75,East,99,0.0,0.0,66,0.00,,,0.00,281,Wunderground v.1.15,2013-07-22 14:07:00,
2013-07-22 08:13:00,60.9,49.5,29.75,East,94,0.0,1.0,66,0.00,,,0.00,306,Wunderground v.1.15,2013-07-22 14:13:00,
2013-07-22 08:19:00,61.5,48.8,29.75,East,94,0.0,1.0,63,0.00,,,0.00,336,Wunderground v.1.15,2013-07-22 14:19:00,
2013-07-22 08:25:00,62.1,48.9,29.76,East,101,0.0,0.0,62,0.00,,,0.00,360,Wunderground v.1.15,2013-07-22 14:25:00,
2013-07-22 08:31:00,62.7,49.9,29.76,East,88,0.0,0.0,63,0.00,,,0.00,388,Wunderground v.1.15,2013-07-22 14:31:00,
2013-07-22 08:37:00,63.2,49.1,29.76,East,89,0.0,0.0,60,0.00,,,0.00,77,Wunderground v.1.15,2013-07-22 14:37:00,
2013-07-22 08:43:00,63.6,50.3,29.76,ENE,64,0.0,0.0,62,0.00,,,0.00,417,Wunderground v.1.15,2013-07-22 14:43:00,
2013-07-22 08:48:00,63.8,50.1,29.76,NE,51,0.0,0.0,61,0.00,,,0.00,417,Wunderground v.1.15,2013-07-22 14:48:00,
2013-07-22 08:54:00,64.0,50.3,29.76,NNE,21,0.0,1.0,61,0.00,,,0.00,174,Wunderground v.1.15,2013-07-22 14:54:00,
2013-07-22 09:00:00,64.4,51.1,29.76,NE,37,0.0,0.0,62,0.00,,,0.00,485,Wunderground v.1.15,2013-07-22 15:00:00,
2013-07-22 09:06:00,64.7,50.9,29.75,NE,37,0.0,0.0,61,0.00,,,0.00,113,Wunderground v.1.15,2013-07-22 15:06:00,
2013-07-22 09:12:00,65.0,51.2,29.76,NE,37,0.0,0.0,61,0.00,,,0.00,475,Wunderground v.1.15,2013-07-22 15:12:00,
2013-07-22 09:18:00,65.4,50.2,29.76,NE,38,0.0,0.0,58,0.00,,,0.00,489,Wunderground v.1.15,2013-07-22 15:18:00,
2013-07-22 09:24:00,65.7,50.0,29.76,ESE,105,1.0,1.0,57,0.00,,,0.00,496,Wunderground v.1.15,2013-07-22 15:24:00,
2013-07-22 09:30:00,66.2,51.4,29.76,East,98,0.0,0.0,59,0.00,,,0.00,211,Wunderground v.1.15,2013-07-22 15:30:00,
2013-07-22 09:36:00,66.2,49.6,29.76,ESE,117,0.0,1.0,55,0.00,,,0.00,114,Wunderground v.1.15,2013-07-22 15:36:00,
2013-07-22 09:42:00,66.0,50.3,29.76,ESE,117,0.0,0.0,57,0.00,,,0.00,127,Wunderground v.1.15,2013-07-22 15:42:00,
2013-07-22 09:48:00,65.8,50.6,29.76,ESE,117,0.0,0.0,58,0.00,,,0.00,213,Wunderground v.1.15,2013-07-22 15:48:00,
2013-07-22 09:54:00,65.6,49.5,29.76,ESE,117,0.0,0.0,56,0.00,,,0.00,116,Wunderground v.1.15,2013-07-22 15:54:00,
2013-07-22 10:00:00,65.6,50.0,29.76,ESE,117,0.0,0.0,57,0.00,,,0.00,599,Wunderground v.1.15,2013-07-22 16:00:00,
2013-07-22 10:06:00,66.1,50.9,29.76,ESE,117,0.0,2.0,58,0.00,,,0.00,640,Wunderground v.1.15,2013-07-22 16:06:00,
2013-07-22 10:12:00,66.6,50.9,29.76,ESE,118,0.0,0.0,57,0.00,,,0.00,643,Wunderground v.1.15,2013-07-22 16:12:00,
2013-07-22 10:18:00,67.5,51.7,29.76,ESE,118,0.0,1.0,57,0.00,,,0.00,671,Wunderground v.1.15,2013-07-22 16:18:00,
2013-07-22 10:24:00,68.2,51.4,29.76,ESE,118,1.0,1.0,55,0.00,,,0.00,719,Wunderground v.1.15,2013-07-22 16:24:00,
2013-07-22 10:29:00,68.9,50.5,29.76,ESE,118,1.0,1.0,52,0.00,,,0.00,712,Wunderground v.1.15,2013-07-22 16:29:00,
2013-07-22 10:35:00,69.6,51.7,29.76,NNE,16,1.0,1.0,53,0.00,,,0.00,687,Wunderground v.1.15,2013-07-22 16:35:00,
2013-07-22 10:41:00,70.4,54.0,29.76,NNE,20,0.0,1.0,56,0.00,,,0.00,686,Wunderground v.1.15,2013-07-22 16:41:00,
2013-07-22 10:47:00,71.3,51.1,29.76,NNE,18,0.0,1.0,49,0.00,,,0.00,691,Wunderground v.1.15,2013-07-22 16:47:00,
2013-07-22 10:53:00,71.6,51.4,29.76,ENE,70,1.0,1.0,49,0.00,,,0.00,722,Wunderground v.1.15,2013-07-22 16:53:00,
2013-07-22 10:59:00,71.6,51.4,29.76,ENE,76,1.0,4.0,49,0.00,,,0.00,745,Wunderground v.1.15,2013-07-22 16:59:00,
2013-07-22 11:05:00,72.1,51.3,29.76,ENE,76,0.0,1.0,48,0.00,,,0.00,738,Wunderground v.1.15,2013-07-22 17:05:00,
2013-07-22 11:11:00,72.6,52.3,29.76,ENE,69,0.0,3.0,49,0.00,,,0.00,733,Wunderground v.1.15,2013-07-22 17:11:00,
2013-07-22 11:17:00,73.1,53.9,29.76,ENE,68,1.0,3.0,51,0.00,,,0.00,745,Wunderground v.1.15,2013-07-22 17:17:00,
2013-07-22 11:23:00,73.5,51.4,29.76,ENE,68,0.0,1.0,46,0.00,,,0.00,758,Wunderground v.1.15,2013-07-22 17:23:00,
2013-07-22 11:29:00,74.0,50.7,29.76,ENE,68,0.0,2.0,44,0.00,,,0.00,784,Wunderground v.1.15,2013-07-22 17:29:00,
2013-07-22 11:34:00,74.3,53.9,29.76,NE,46,1.0,1.0,49,0.00,,,0.00,772,Wunderground v.1.15,2013-07-22 17:34:00,
2013-07-22 11:40:00,74.5,52.9,29.76,East,88,1.0,1.0,47,0.00,,,0.00,775,Wunderground v.1.15,2013-07-22 17:40:00,
2013-07-22 11:46:00,75.1,52.3,29.76,East,89,1.0,1.0,45,0.00,,,0.00,840,Wunderground v.1.15,2013-07-22 17:46:00,
2013-07-22 11:52:00,75.7,52.2,29.76,East,89,0.0,0.0,44,0.00,,,0.00,847,Wunderground v.1.15,2013-07-22 17:52:00,
2013-07-22 11:58:00,76.3,53.4,29.76,East,92,1.0,4.0,45,0.00,,,0.00,816,Wunderground v.1.15,2013-07-22 17:58:00,
2013-07-22 12:04:00,76.2,49.4,29.76,East,95,1.0,1.0,39,0.00,,,0.00,819,Wunderground v.1.15,2013-07-22 18:04:00,
2013-07-22 12:11:00,76.7,50.6,29.76,East,95,0.0,0.0,40,0.00,,,0.00,812,Wunderground v.1.15,2013-07-22 18:11:00,
2013-07-22 12:17:00,77.4,50.5,29.75,East,95,0.0,0.0,39,0.00,,,0.00,812,Wunderground v.1.15,2013-07-22 18:17:00,
2013-07-22 12:23:00,78.0,51.0,29.75,East,94,0.0,1.0,39,0.00,,,0.00,817,Wunderground v.1.15,2013-07-22 18:23:00,
2013-07-22 12:29:00,78.4,50.7,29.75,East,94,1.0,1.0,38,0.00,,,0.00,821,Wunderground v.1.15,2013-07-22 18:29:00,
2013-07-22 12:36:00,79.4,50.9,29.75,ENE,74,0.0,1.0,37,0.00,,,0.00,828,Wunderground v.1.15,2013-07-22 18:36:00,
2013-07-22 12:42:00,80.3,48.6,29.75,NW,321,0.0,1.0,33,0.00,,,0.00,830,Wunderground v.1.15,2013-07-22 18:42:00,
2013-07-22 12:48:00,80.9,50.7,29.75,NW,321,1.0,5.0,35,0.00,,,0.00,835,Wunderground v.1.15,2013-07-22 18:48:00,
2013-07-22 12:54:00,81.2,46.8,29.75,South,169,3.0,6.0,30,0.00,,,0.00,838,Wunderground v.1.15,2013-07-22 18:54:00,
2013-07-22 13:00:00,81.6,49.7,29.75,WNW,294,2.0,2.0,33,0.00,,,0.00,842,Wunderground v.1.15,2013-07-22 19:00:00,
2013-07-22 13:06:00,82.0,49.2,29.74,NNW,330,2.0,5.0,32,0.00,,,0.00,842,Wunderground v.1.15,2013-07-22 19:06:00,
2013-07-22 13:12:00,82.4,48.7,29.74,NW,317,3.0,5.0,31,0.00,,,0.00,847,Wunderground v.1.15,2013-07-22 19:12:00,
2013-07-22 13:18:00,82.7,48.1,29.74,WNW,285,3.0,7.0,30,0.00,,,0.00,849,Wunderground v.1.15,2013-07-22 19:18:00,
2013-07-22 13:24:00,83.2,48.5,29.74,NNE,26,2.0,6.0,30,0.00,,,0.00,849,Wunderground v.1.15,2013-07-22 19:24:00,
2013-07-22 13:29:00,83.4,50.4,29.74,NW,311,2.0,6.0,32,0.00,,,0.00,854,Wunderground v.1.15,2013-07-22 19:29:00,
2013-07-22 13:36:00,83.6,49.8,29.74,NE,34,3.0,5.0,31,0.00,,,0.00,851,Wunderground v.1.15,2013-07-22 19:36:00,
2013-07-22 13:42:00,83.9,48.2,29.74,NW,309,2.0,6.0,29,0.00,,,0.00,853,Wunderground v.1.15,2013-07-22 19:42:00,
2013-07-22 13:48:00,84.4,48.7,29.75,West,275,2.0,6.0,29,0.00,,,0.00,849,Wunderground v.1.15,2013-07-22 19:48:00,
2013-07-22 13:53:00,84.3,46.7,29.74,SW,225,2.0,7.0,27,0.00,,,0.00,849,Wunderground v.1.15,2013-07-22 19:53:00,
2013-07-22 14:00:00,84.6,47.9,29.75,West,267,3.0,4.0,28,0.00,,,0.00,849,Wunderground v.1.15,2013-07-22 20:00:00,
2013-07-22 14:05:00,84.7,51.6,29.74,ESE,117,3.0,6.0,32,0.00,,,0.00,847,Wunderground v.1.15,2013-07-22 20:05:00,
2013-07-22 14:12:00,84.7,49.8,29.74,NW,315,2.0,5.0,30,0.00,,,0.00,846,Wunderground v.1.15,2013-07-22 20:12:00,
2013-07-22 14:17:00,84.7,48.0,29.74,South,185,3.0,6.0,28,0.00,,,0.00,840,Wunderground v.1.15,2013-07-22 20:17:00,
2013-07-22 14:18:00,84.7,48.0,29.75,South,171,3.0,6.0,28,0.00,,,0.00,840,Wunderground v.1.15,2013-07-22 20:18:00,
2013-07-22 14:19:00,84.8,48.1,29.74,South,171,3.0,6.0,28,0.00,,,0.00,840,Wunderground v.1.15,2013-07-22 20:19:00,
2013-07-22 14:22:00,84.9,48.2,29.74,SSE,168,3.0,5.0,28,0.00,,,0.00,837,Wunderground v.1.15,2013-07-22 20:22:00,
2013-07-22 14:24:00,84.9,49.1,29.74,West,260,3.0,6.0,29,0.00,,,0.00,837,Wunderground v.1.15,2013-07-22 20:24:00,
2013-07-22 14:30:00,85.2,47.4,29.74,West,277,2.0,4.0,27,0.00,,,0.00,837,Wunderground v.1.15,2013-07-22 20:30:00,
2013-07-22 14:36:00,85.5,47.7,29.74,SSW,202,2.0,6.0,27,0.00,,,0.00,833,Wunderground v.1.15,2013-07-22 20:36:00,
2013-07-22 14:42:00,85.8,48.0,29.74,West,269,1.0,6.0,27,0.00,,,0.00,821,Wunderground v.1.15,2013-07-22 20:42:00,
2013-07-22 14:46:00,85.9,48.0,29.74,West,259,2.0,6.0,27,0.00,,,0.00,824,Wunderground v.1.15,2013-07-22 20:46:00,
2013-07-22 14:51:00,86.0,49.1,29.74,WSW,240,3.0,6.0,28,0.00,,,0.00,817,Wunderground v.1.15,2013-07-22 20:51:00,
2013-07-22 14:57:00,85.9,48.0,29.74,West,279,2.0,7.0,27,0.00,,,0.00,810,Wunderground v.1.15,2013-07-22 20:57:00,
2013-07-22 15:03:00,86.4,49.4,29.74,ENE,78,2.0,4.0,28,0.00,,,0.00,803,Wunderground v.1.15,2013-07-22 21:03:00,
2013-07-22 15:08:00,86.4,48.5,29.74,WSW,252,1.0,4.0,27,0.00,,,0.00,802,Wunderground v.1.15,2013-07-22 21:08:00,
2013-07-22 15:14:00,86.8,47.8,29.74,SSW,211,1.0,3.0,26,0.00,,,0.00,796,Wunderground v.1.15,2013-07-22 21:14:00,
2013-07-22 15:20:00,86.8,49.8,29.74,NE,43,2.0,2.0,28,0.00,,,0.00,789,Wunderground v.1.15,2013-07-22 21:20:00,
2013-07-22 15:26:00,86.8,46.8,29.73,South,173,2.0,3.0,25,0.00,,,0.00,780,Wunderground v.1.15,2013-07-22 21:26:00,
2013-07-22 15:32:00,87.1,47.0,29.73,North,355,2.0,2.0,25,0.00,,,0.00,777,Wunderground v.1.15,2013-07-22 21:32:00,
2013-07-22 15:38:00,86.9,45.8,29.73,WNW,284,2.0,4.0,24,0.00,,,0.00,765,Wunderground v.1.15,2013-07-22 21:38:00,
2013-07-22 15:44:00,87.0,50.0,29.73,ENE,68,2.0,4.0,28,0.00,,,0.00,752,Wunderground v.1.15,2013-07-22 21:44:00,
2013-07-22 15:50:00,86.6,46.6,29.72,SE,140,2.0,5.0,25,0.00,,,0.00,747,Wunderground v.1.15,2013-07-22 21:50:00,
2013-07-22 15:56:00,86.8,44.6,29.73,WNW,289,3.0,7.0,23,0.00,,,0.00,740,Wunderground v.1.15,2013-07-22 21:56:00,
2013-07-22 16:02:00,87.1,45.9,29.72,SE,134,2.0,6.0,24,0.00,,,0.00,731,Wunderground v.1.15,2013-07-22 22:02:00,
2013-07-22 16:08:00,87.3,47.2,29.72,ESE,111,2.0,6.0,25,0.00,,,0.00,722,Wunderground v.1.15,2013-07-22 22:08:00,
2013-07-22 16:14:00,87.7,45.3,29.72,SSW,209,2.0,8.0,23,0.00,,,0.00,717,Wunderground v.1.15,2013-07-22 22:14:00,
2013-07-22 16:20:00,87.6,46.3,29.72,WNW,287,3.0,3.0,24,0.00,,,0.00,102,Wunderground v.1.15,2013-07-22 22:20:00,
2013-07-22 16:26:00,87.5,47.3,29.72,SSE,165,1.0,3.0,25,0.00,,,0.00,715,Wunderground v.1.15,2013-07-22 22:26:00,
2013-07-22 16:32:00,87.8,45.4,29.72,South,180,1.0,1.0,23,0.00,,,0.00,703,Wunderground v.1.15,2013-07-22 22:32:00,
2013-07-22 16:37:00,87.8,45.4,29.73,WSW,257,1.0,5.0,23,0.00,,,0.00,715,Wunderground v.1.15,2013-07-22 22:37:00,
2013-07-22 16:42:00,87.2,43.7,29.72,SE,136,2.0,4.0,22,0.00,,,0.00,104,Wunderground v.1.15,2013-07-22 22:42:00,
2013-07-22 16:48:00,86.9,49.9,29.72,West,275,2.0,6.0,28,0.00,,,0.00,83,Wunderground v.1.15,2013-07-22 22:48:00,
2013-07-22 16:54:00,86.0,47.1,29.71,SSE,155,2.0,9.0,26,0.00,,,0.00,649,Wunderground v.1.15,2013-07-22 22:54:00,
2013-07-22 17:00:00,85.9,42.6,29.72,NW,313,2.0,2.0,22,0.00,,,0.00,626,Wunderground v.1.15,2013-07-22 23:00:00,
2013-07-22 17:06:00,86.3,44.1,29.71,NE,41,2.0,7.0,23,0.00,,,0.00,615,Wunderground v.1.15,2013-07-22 23:06:00,
2013-07-22 17:12:00,86.7,45.6,29.72,WNW,293,2.0,2.0,24,0.00,,,0.00,601,Wunderground v.1.15,2013-07-22 23:12:00,
2013-07-22 17:18:00,87.1,42.4,29.72,NNW,327,3.0,7.0,21,0.00,,,0.00,587,Wunderground v.1.15,2013-07-22 23:18:00,
2013-07-22 17:23:00,87.2,42.5,29.72,SW,228,4.0,6.0,21,0.00,,,0.00,575,Wunderground v.1.15,2013-07-22 23:23:00,
2013-07-22 17:29:00,87.5,41.5,29.72,WNW,294,2.0,6.0,20,0.00,,,0.00,561,Wunderground v.1.15,2013-07-22 23:29:00,
2013-07-22 17:35:00,87.4,45.1,29.72,ENE,69,3.0,10.0,23,0.00,,,0.00,545,Wunderground v.1.15,2013-07-22 23:35:00,
2013-07-22 17:40:00,87.4,45.1,29.73,SSE,153,3.0,3.0,23,0.00,,,0.00,531,Wunderground v.1.15,2013-07-22 23:40:00,
2013-07-22 17:46:00,87.4,43.9,29.73,West,266,1.0,6.0,22,0.00,,,0.00,520,Wunderground v.1.15,2013-07-22 23:46:00,
2013-07-22 17:52:00,87.5,42.8,29.73,WSW,251,2.0,4.0,21,0.00,,,0.00,503,Wunderground v.1.15,2013-07-22 23:52:00,
2013-07-22 17:58:00,87.6,45.2,29.73,West,271,2.0,6.0,23,0.00,,,0.00,487,Wunderground v.1.15,2013-07-22 23:58:00,
2013-07-22 18:04:00,87.5,48.4,29.73,NW,306,2.0,3.0,26,0.00,,,0.00,473,Wunderground v.1.15,2013-07-23 00:04:00,
2013-07-22 18:10:00,87.5,48.4,29.72,East,90,1.0,3.0,26,0.00,,,0.00,457,Wunderground v.1.15,2013-07-23 00:10:00,
2013-07-22 18:16:00,87.1,45.9,29.73,NW,304,2.0,8.0,24,0.00,,,0.00,439,Wunderground v.1.15,2013-07-23 00:16:00,
2013-07-22 18:22:00,86.8,43.4,29.73,NW,305,4.0,6.0,22,0.00,,,0.00,425,Wunderground v.1.15,2013-07-23 00:22:00,
2013-07-22 18:28:00,86.6,42.0,29.73,North,355,3.0,6.0,21,0.00,,,0.00,408,Wunderground v.1.15,2013-07-23 00:28:00,
2013-07-22 18:33:00,86.3,44.1,29.73,WNW,294,3.0,4.0,23,0.00,,,0.00,396,Wunderground v.1.15,2013-07-23 00:33:00,
2013-07-22 18:39:00,86.3,40.5,29.73,West,260,2.0,4.0,20,0.00,,,0.00,378,Wunderground v.1.15,2013-07-23 00:39:00,
2013-07-22 18:45:00,86.1,42.8,29.73,WNW,294,2.0,8.0,22,0.00,,,0.00,362,Wunderground v.1.15,2013-07-23 00:45:00,
2013-07-22 18:50:00,85.9,43.8,29.73,North,355,2.0,2.0,23,0.00,,,0.00,348,Wunderground v.1.15,2013-07-23 00:50:00,
2013-07-22 18:55:00,85.7,41.3,29.73,ESE,113,2.0,6.0,21,0.00,,,0.00,334,Wunderground v.1.15,2013-07-23 00:55:00,
2013-07-22 19:00:00,85.6,42.4,29.73,WNW,302,2.0,6.0,22,0.00,,,0.00,320,Wunderground v.1.15,2013-07-23 01:00:00,
2013-07-22 19:06:00,85.5,41.1,29.74,SW,219,2.0,6.0,21,0.00,,,0.00,304,Wunderground v.1.15,2013-07-23 01:06:00,
2013-07-22 19:12:00,85.3,44.4,29.74,WNW,292,2.0,8.0,24,0.00,,,0.00,295,Wunderground v.1.15,2013-07-23 01:12:00,
2013-07-22 19:18:00,85.0,44.2,29.74,SW,214,2.0,8.0,24,0.00,,,0.00,272,Wunderground v.1.15,2013-07-23 01:18:00,
2013-07-22 19:23:00,84.9,43.0,29.74,WSW,246,1.0,5.0,23,0.00,,,0.00,257,Wunderground v.1.15,2013-07-23 01:23:00,
2013-07-22 19:28:00,84.9,44.1,29.75,WNW,290,1.0,11.0,24,0.00,,,0.00,246,Wunderground v.1.15,2013-07-23 01:28:00,
2013-07-22 19:34:00,84.7,46.0,29.75,NNE,31,1.0,1.0,26,0.00,,,0.00,230,Wunderground v.1.15,2013-07-23 01:34:00,
2013-07-22 19:39:00,84.5,45.8,29.75,SSE,153,0.0,1.0,26,0.00,,,0.00,216,Wunderground v.1.15,2013-07-23 01:39:00,
2013-07-22 19:44:00,84.2,44.6,29.75,WNW,295,1.0,4.0,25,0.00,,,0.00,202,Wunderground v.1.15,2013-07-23 01:44:00,
2013-07-22 19:50:00,84.0,45.4,29.75,ESE,103,2.0,2.0,26,0.00,,,0.00,188,Wunderground v.1.15,2013-07-23 01:50:00,
2013-07-22 19:56:00,83.7,46.2,29.75,NW,326,2.0,2.0,27,0.00,,,0.00,174,Wunderground v.1.15,2013-07-23 01:56:00,
2013-07-22 20:02:00,83.4,45.9,29.75,SSW,213,1.0,1.0,27,0.00,,,0.00,125,Wunderground v.1.15,2013-07-23 02:02:00,
2013-07-22 20:07:00,83.1,45.7,29.75,West,262,1.0,4.0,27,0.00,,,0.00,76,Wunderground v.1.15,2013-07-23 02:07:00,
2013-07-22 20:13:00,82.8,46.4,29.75,WNW,288,1.0,1.0,28,0.00,,,0.00,120,Wunderground v.1.15,2013-07-23 02:13:00,
2013-07-22 20:19:00,82.5,47.9,29.75,WNW,295,1.0,1.0,30,0.00,,,0.00,97,Wunderground v.1.15,2013-07-23 02:19:00,
2013-07-22 20:25:00,81.9,48.3,29.75,NW,308,1.0,1.0,31,0.00,,,0.00,16,Wunderground v.1.15,2013-07-23 02:25:00,
2013-07-22 20:30:00,81.2,47.7,29.75,WSW,250,1.0,1.0,31,0.00,,,0.00,16,Wunderground v.1.15,2013-07-23 02:30:00,
2013-07-22 20:36:00,80.3,49.4,29.75,WSW,250,0.0,1.0,34,0.00,,,0.00,14,Wunderground v.1.15,2013-07-23 02:36:00,
2013-07-22 20:41:00,79.4,50.1,29.75,SSW,210,0.0,0.0,36,0.00,,,0.00,12,Wunderground v.1.15,2013-07-23 02:41:00,
2013-07-22 20:47:00,78.0,49.6,29.75,West,279,0.0,2.0,37,0.00,,,0.00,12,Wunderground v.1.15,2013-07-23 02:47:00,
2013-07-22 20:52:00,76.6,50.5,29.76,West,275,0.0,2.0,40,0.00,,,0.00,11,Wunderground v.1.15,2013-07-23 02:52:00,
2013-07-22 20:57:00,75.4,48.7,29.76,West,279,0.0,2.0,39,0.00,,,0.00,9,Wunderground v.1.15,2013-07-23 02:57:00,
2013-07-22 21:03:00,74.2,49.6,29.76,West,279,0.0,0.0,42,0.00,,,0.00,9,Wunderground v.1.15,2013-07-23 03:03:00,
2013-07-22 21:08:00,73.1,48.6,29.76,WNW,286,1.0,4.0,42,0.00,,,0.00,7,Wunderground v.1.15,2013-07-23 03:08:00,
2013-07-22 21:14:00,72.0,49.5,29.76,WNW,286,1.0,1.0,45,0.00,,,0.00,5,Wunderground v.1.15,2013-07-23 03:14:00,
2013-07-22 21:19:00,71.3,49.4,29.77,West,271,1.0,1.0,46,0.00,,,0.00,0,Wunderground v.1.15,2013-07-23 03:19:00,
2013-07-22 21:25:00,70.6,48.8,29.77,WSW,250,1.0,2.0,46,0.00,,,0.00,0,Wunderground v.1.15,2013-07-23 03:25:00,
2013-07-22 21:30:00,70.0,49.4,29.77,WNW,282,0.0,0.0,48,0.00,,,0.00,0,Wunderground v.1.15,2013-07-23 03:30:00,
2013-07-22 21:36:00,69.3,49.3,29.77,NW,309,0.0,1.0,49,0.00,,,0.00,0,Wunderground v.1.15,2013-07-23 03:36:00,
2013-07-22 21:42:00,68.6,48.7,29.77,West,272,1.0,1.0,49,0.00,,,0.00,0,Wunderground v.1.15,2013-07-23 03:42:00,
2013-07-22 21:48:00,68.1,48.8,29.77,West,272,1.0,2.0,50,0.00,,,0.00,0,Wunderground v.1.15,2013-07-23 03:48:00,
2013-07-22 21:53:00,67.8,49.0,29.77,West,273,1.0,1.0,51,0.00,,,0.00,0,Wunderground v.1.15,2013-07-23 03:53:00,
2013-07-22 21:59:00,67.4,49.2,29.78,West,273,0.0,1.0,52,0.00,,,0.00,0,Wunderground v.1.15,2013-07-23 03:59:00,
2013-07-22 22:01:00,67.3,49.1,29.78,West,273,0.0,2.0,52,0.00,,,0.00,0,Wunderground v.1.15,2013-07-23 04:01:00,
2013-07-22 22:02:00,67.2,49.0,29.78,West,272,0.0,2.0,52,0.00,,,0.00,0,Wunderground v.1.15,2013-07-23 04:02:00,
2013-07-22 22:03:00,67.1,48.9,29.78,West,272,0.0,2.0,52,0.00,,,0.00,0,Wunderground v.1.15,2013-07-23 04:03:00,
2013-07-22 22:07:00,66.8,48.6,29.78,West,272,0.0,5.0,52,0.00,,,0.00,0,Wunderground v.1.15,2013-07-23 04:07:00,
2013-07-22 22:10:00,66.7,48.0,29.79,NW,305,1.0,2.0,51,0.00,,,0.00,0,Wunderground v.1.15,2013-07-23 04:10:00,
2013-07-22 22:16:00,66.5,48.3,29.79,West,278,1.0,2.0,52,0.00,,,0.00,0,Wunderground v.1.15,2013-07-23 04:16:00,
2013-07-22 22:22:00,66.4,49.2,29.80,West,262,1.0,1.0,54,0.00,,,0.00,0,Wunderground v.1.15,2013-07-23 04:22:00,
2013-07-22 22:28:00,66.3,49.2,29.80,West,264,1.0,1.0,54,0.00,,,0.00,0,Wunderground v.1.15,2013-07-23 04:28:00,
2013-07-22 22:34:00,66.0,48.9,29.80,West,281,1.0,2.0,54,0.00,,,0.00,0,Wunderground v.1.15,2013-07-23 04:34:00,
2013-07-22 22:40:00,65.8,49.2,29.80,West,281,1.0,1.0,55,0.00,,,0.00,0,Wunderground v.1.15,2013-07-23 04:40:00,
2013-07-22 22:45:00,65.5,49.4,29.81,West,280,0.0,1.0,56,0.00,,,0.00,0,Wunderground v.1.15,2013-07-23 04:45:00,
2013-07-22 22:51:00,65.2,49.6,29.81,West,280,1.0,2.0,57,0.00,,,0.00,0,Wunderground v.1.15,2013-07-23 04:51:00,
2013-07-22 22:56:00,64.9,49.8,29.81,West,281,1.0,2.0,58,0.00,,,0.00,0,Wunderground v.1.15,2013-07-23 04:56:00,
2013-07-22 23:02:00,64.4,48.4,29.81,West,280,1.0,1.0,56,0.00,,,0.00,0,Wunderground v.1.15,2013-07-23 05:02:00,
2013-07-22 23:08:00,64.1,49.0,29.81,West,281,1.0,2.0,58,0.00,,,0.00,0,Wunderground v.1.15,2013-07-23 05:08:00,
2013-07-22 23:14:00,63.7,48.6,29.81,West,281,1.0,2.0,58,0.00,,,0.00,0,Wunderground v.1.15,2013-07-23 05:14:00,
2013-07-22 23:20:00,63.5,48.9,29.82,West,281,1.0,1.0,59,0.00,,,0.00,0,Wunderground v.1.15,2013-07-23 05:20:00,
2013-07-22 23:26:00,63.4,48.8,29.82,West,280,1.0,2.0,59,0.00,,,0.00,0,Wunderground v.1.15,2013-07-23 05:26:00,
2013-07-22 23:32:00,63.3,49.2,29.82,West,281,0.0,0.0,60,0.00,,,0.00,0,Wunderground v.1.15,2013-07-23 05:32:00,
2013-07-22 23:38:00,63.2,48.6,29.82,West,281,0.0,1.0,59,0.00,,,0.00,0,Wunderground v.1.15,2013-07-23 05:38:00,
2013-07-22 23:44:00,63.1,49.4,29.82,West,280,1.0,1.0,61,0.00,,,0.00,0,Wunderground v.1.15,2013-07-23 05:44:00,
2013-07-22 23:50:00,62.9,48.8,29.83,West,281,1.0,1.0,60,0.00,,,0.00,0,Wunderground v.1.15,2013-07-23 05:50:00,
2013-07-22 23:56:00,62.7,48.6,29.83,West,281,1.0,1.0,60,0.00,,,0.00,0,Wunderground v.1.15,2013-07-23 05:56:00,